Ohyamamaru — JG5507 — position and weather

sailwx.info

Track history (hours):
 
Tides and Currents Weather Stations Pressure Air Temp Water Temp Dewpoint Dewpoint Depression Visibility Wind Speed Wind Dir Waves Ship Positions

Ohyamamaru

Last reported at 2017-Apr-30 20:30 UTC. Time now 2017-Apr-30 20:51 UTC.
Position N 35°38' E 139°45'.

Length 36 m; draft 4.4 m.

Type: Tug. MMSI: 431001114.

Date/timePositionNaut miles runAvg speedWind from/ knotsBaromVisibWave heightAir tempDewpointWater temp
2017-Apr-30 20:30N 35°38' E 139°45'0 0.0
2017-Apr-30 20:01N 35°38' E 139°45'0 0.0
2017-Apr-30 19:30N 35°38' E 139°45'0 0.0
2017-Apr-30 19:00N 35°38' E 139°45'0 0.0
2017-Apr-30 18:30N 35°38' E 139°45'0 0.0
2017-Apr-30 18:00N 35°38' E 139°45'0 0.0
2017-Apr-30 17:30N 35°38' E 139°45'0 0.0
2017-Apr-30 17:00N 35°38' E 139°45'0 0.0
2017-Apr-30 16:31N 35°38' E 139°45'0 0.0
2017-Apr-30 16:00N 35°38' E 139°45'0 0.0
2017-Apr-30 15:31N 35°38' E 139°45'0 0.0
2017-Apr-30 15:01N 35°38' E 139°45'0 0.0
2017-Apr-30 14:31N 35°38' E 139°45'0 0.0
2017-Apr-30 13:31N 35°38' E 139°45'0 0.0
2017-Apr-30 13:01N 35°38' E 139°45'0 0.0
2017-Apr-30 12:30N 35°38' E 139°45'0 0.0
2017-Apr-30 12:00N 35°38' E 139°45'0 0.0
2017-Apr-30 11:30N 35°38' E 139°45'0 0.0
2017-Apr-30 11:01N 35°38' E 139°45'0 0.0
2017-Apr-30 10:30N 35°38' E 139°45'0 0.0
2017-Apr-30 10:01N 35°38' E 139°45'2 4.6
2017-Apr-30 09:30N 35°36' E 139°46'0 0.4
2017-Apr-30 09:00N 35°36' E 139°47'2 4.3
2017-Apr-30 08:30N 35°34' E 139°48'3 5.2
2017-Apr-30 08:00N 35°36' E 139°46'2 4.0
2017-Apr-30 07:30N 35°38' E 139°45'0 0.0
2017-Apr-30 07:00N 35°38' E 139°45'0 0.0
2017-Apr-30 06:30N 35°38' E 139°45'0 0.0
2017-Apr-30 06:00N 35°38' E 139°45'0 0.0
2017-Apr-30 05:31N 35°38' E 139°45'0 0.0
2017-Apr-30 05:00N 35°38' E 139°45'0 0.0
2017-Apr-30 04:30N 35°38' E 139°45'0 0.0
2017-Apr-30 04:00N 35°38' E 139°45'0 0.0
2017-Apr-30 03:30N 35°38' E 139°45'0 0.0
2017-Apr-30 03:01N 35°38' E 139°45'0 0.0
2017-Apr-30 02:30N 35°38' E 139°45'0 0.0
2017-Apr-30 02:01N 35°38' E 139°45'0 0.0
2017-Apr-30 01:30N 35°38' E 139°45'0 0.0
2017-Apr-30 01:01N 35°38' E 139°45'0 0.0
2017-Apr-30 00:31N 35°38' E 139°45'0 0.0
2017-Apr-30 00:00N 35°38' E 139°45'0 0.0
2017-Apr-29 23:30N 35°38' E 139°45'0 0.0
2017-Apr-29 23:00N 35°38' E 139°45'0 0.0
2017-Apr-29 22:30N 35°38' E 139°45'0 0.0
2017-Apr-29 22:01N 35°38' E 139°45'0 0.0
2017-Apr-29 21:29N 35°38' E 139°45'0 0.0
2017-Apr-29 21:00N 35°38' E 139°45'0 0.0
2017-Apr-29 20:30N 35°38' E 139°45'0 0.0
2017-Apr-29 20:01N 35°38' E 139°45'0 0.0
2017-Apr-29 19:30N 35°38' E 139°45'0 0.0
2017-Apr-29 19:01N 35°38' E 139°45'0 0.0
2017-Apr-29 18:31N 35°38' E 139°45'0 0.0
2017-Apr-29 18:00N 35°38' E 139°45'0 0.0
2017-Apr-29 17:30N 35°38' E 139°45'0 0.0
2017-Apr-29 17:00N 35°38' E 139°45'0 0.0
2017-Apr-29 16:31N 35°38' E 139°45'0 0.0
2017-Apr-29 16:00N 35°38' E 139°45'0 0.0
2017-Apr-29 15:31N 35°38' E 139°45'0 0.0
2017-Apr-29 15:00N 35°38' E 139°45'0 0.0
2017-Apr-29 14:00N 35°38' E 139°45'0 0.0
2017-Apr-29 13:30N 35°38' E 139°45'0 0.0
2017-Apr-29 13:00N 35°38' E 139°45'0 0.0
2017-Apr-29 12:30N 35°38' E 139°45'0 0.0
2017-Apr-29 12:00N 35°38' E 139°45'0 0.0
2017-Apr-29 11:31N 35°38' E 139°45'1 1.5
2017-Apr-29 11:00N 35°37' E 139°46'1 2.9
2017-Apr-29 10:30N 35°36' E 139°47'1 2.4
2017-Apr-29 10:00N 35°37' E 139°46'1 2.1
2017-Apr-29 09:31N 35°36' E 139°46'0 0.2
2017-Apr-29 09:00N 35°36' E 139°46'3 5.7
2017-Apr-29 08:30N 35°34' E 139°49'2 4.6
2017-Apr-29 08:00N 35°35' E 139°47'1 1.3
2017-Apr-29 07:31N 35°36' E 139°47'1 1.8
2017-Apr-29 07:00N 35°37' E 139°46'1 2.8
2017-Apr-29 06:30N 35°38' E 139°45'0 0.8
2017-Apr-29 06:00N 35°38' E 139°46'2 3.9
2017-Apr-29 05:23N 35°36' E 139°47'2 4.7
2017-Apr-29 05:00N 35°37' E 139°46'1 2.0
2017-Apr-29 04:30N 35°38' E 139°45'0 0.0
2017-Apr-29 04:00N 35°38' E 139°45'0 0.0
2017-Apr-29 03:30N 35°38' E 139°45'0 0.0
2017-Apr-29 03:00N 35°38' E 139°45'0 0.0
2017-Apr-29 02:30N 35°38' E 139°45'0 0.0
2017-Apr-29 02:00N 35°38' E 139°45'0 0.0
2017-Apr-29 01:30N 35°38' E 139°45'0 0.0
2017-Apr-29 00:47N 35°38' E 139°45'0 0.0
2017-Apr-29 00:29N 35°38' E 139°45'0 0.0
2017-Apr-29 00:00N 35°38' E 139°45'2 3.5
2017-Apr-28 23:30N 35°37' E 139°46'1 1.6
2017-Apr-28 23:00N 35°36' E 139°47'2 4.0
2017-Apr-28 22:30N 35°34' E 139°48'2 3.6
2017-Apr-28 22:00N 35°36' E 139°47'3 6.1
2017-Apr-28 21:30N 35°38' E 139°46'0 0.5
2017-Apr-28 21:00N 35°38' E 139°45'0 0.0
2017-Apr-28 20:30N 35°38' E 139°45'0 0.0
2017-Apr-28 20:00N 35°38' E 139°45'0 0.0
2017-Apr-28 19:30N 35°38' E 139°45'0 0.0
2017-Apr-28 19:00N 35°38' E 139°45'0 0.0
2017-Apr-28 18:30N 35°38' E 139°45'0 0.0
2017-Apr-28 18:00N 35°38' E 139°45'0 0.0
2017-Apr-28 17:30N 35°38' E 139°45'0 0.0
2017-Apr-28 17:00N 35°38' E 139°45'0 0.0
2017-Apr-28 16:30N 35°38' E 139°45'0 0.0
2017-Apr-28 16:00N 35°38' E 139°45'0 0.0
2017-Apr-28 15:30N 35°38' E 139°45'0 0.0
2017-Apr-28 15:00N 35°38' E 139°45'0 0.0
2017-Apr-28 14:00N 35°38' E 139°45'0 0.0
2017-Apr-28 13:30N 35°38' E 139°45'0 0.0
2017-Apr-28 13:00N 35°38' E 139°45'0 0.0
2017-Apr-28 12:30N 35°38' E 139°45'0 0.0
2017-Apr-28 12:00N 35°38' E 139°45'0 0.0
2017-Apr-28 11:30N 35°38' E 139°45'0 0.0
2017-Apr-28 11:00N 35°38' E 139°45'0 0.0
2017-Apr-28 10:30N 35°38' E 139°45'0 0.0
2017-Apr-28 10:00N 35°38' E 139°45'0 0.0
2017-Apr-28 09:30N 35°38' E 139°45'0 0.0
2017-Apr-28 09:00N 35°38' E 139°45'2 4.5
2017-Apr-28 08:30N 35°36' E 139°47'0 0.4
2017-Apr-28 08:00N 35°36' E 139°47'2 4.4
2017-Apr-28 07:30N 35°38' E 139°45'0 0.0
2017-Apr-28 07:00N 35°38' E 139°45'0 0.0
2017-Apr-28 06:30N 35°38' E 139°45'0 0.0
2017-Apr-28 06:00N 35°38' E 139°45'0 0.0
2017-Apr-28 05:30N 35°38' E 139°45'0 0.0
2017-Apr-28 05:00N 35°38' E 139°45'0 0.0
2017-Apr-28 04:30N 35°38' E 139°45'0 0.0
2017-Apr-28 04:00N 35°38' E 139°45'0 0.0
2017-Apr-28 03:30N 35°38' E 139°45'0 0.0
2017-Apr-28 03:00N 35°38' E 139°45'0 0.0
2017-Apr-28 02:30N 35°38' E 139°45'0 0.0
2017-Apr-28 02:00N 35°38' E 139°45'0 0.0
2017-Apr-28 01:30N 35°38' E 139°45'0 0.0
2017-Apr-28 01:00N 35°38' E 139°45'0 0.0
2017-Apr-28 00:30N 35°38' E 139°45'0 0.0
2017-Apr-27 23:59N 35°38' E 139°45'0 0.0
2017-Apr-27 23:30N 35°38' E 139°45'0 0.0
2017-Apr-27 23:00N 35°38' E 139°45'0 0.0
2017-Apr-27 22:30N 35°38' E 139°45'0 0.0
2017-Apr-27 22:00N 35°38' E 139°45'0 0.0
2017-Apr-27 21:30N 35°38' E 139°45'0 0.0
2017-Apr-27 21:00N 35°38' E 139°45'0 0.0
2017-Apr-27 20:30N 35°38' E 139°45'0 0.0
2017-Apr-27 20:00N 35°38' E 139°45'0 0.0
2017-Apr-27 19:30N 35°38' E 139°45'0 0.0
2017-Apr-27 19:00N 35°38' E 139°45'0 0.0
2017-Apr-27 18:30N 35°38' E 139°45'0 0.0
2017-Apr-27 18:00N 35°38' E 139°45'0 0.0
2017-Apr-27 17:30N 35°38' E 139°45'0 0.0
2017-Apr-27 17:00N 35°38' E 139°45'0 0.0
2017-Apr-27 16:30N 35°38' E 139°45'0 0.0
2017-Apr-27 16:00N 35°38' E 139°45'0 0.0
2017-Apr-27 15:30N 35°38' E 139°45'0 0.0
2017-Apr-27 15:00N 35°38' E 139°45'0 0.0
2017-Apr-27 14:00N 35°38' E 139°45'0 0.0
2017-Apr-27 13:30N 35°38' E 139°45'0 0.0
2017-Apr-27 13:00N 35°38' E 139°45'2 4.4
2017-Apr-27 12:30N 35°36' E 139°47'0 0.8
2017-Apr-27 12:00N 35°36' E 139°47'2 4.8
2017-Apr-27 11:30N 35°34' E 139°49'2 4.6
2017-Apr-27 11:00N 35°35' E 139°47'0 0.1
2017-Apr-27 10:30N 35°35' E 139°47'1 2.5
2017-Apr-27 10:00N 35°37' E 139°47'1 1.4
2017-Apr-27 09:19N 35°36' E 139°46'0 0.0
2017-Apr-27 07:34N 35°36' E 139°46'1 8.6
2017-Apr-27 07:30N 35°35' E 139°47'1 2.2
2017-Apr-27 07:00N 35°36' E 139°47'2 3.6
2017-Apr-27 06:30N 35°38' E 139°46'0 0.5
2017-Apr-27 06:00N 35°38' E 139°45'0 0.0
2017-Apr-27 05:30N 35°38' E 139°45'0 0.0
2017-Apr-27 05:00N 35°38' E 139°45'0 0.0
2017-Apr-27 04:30N 35°38' E 139°45'0 0.0
2017-Apr-27 04:00N 35°38' E 139°45'0 0.0
2017-Apr-27 03:30N 35°38' E 139°45'0 0.0
2017-Apr-27 02:59N 35°38' E 139°45'0 0.0
2017-Apr-27 02:28N 35°38' E 139°45'0 0.0
2017-Apr-27 02:00N 35°38' E 139°45'0 0.0
2017-Apr-27 01:30N 35°38' E 139°45'0 0.0
2017-Apr-27 01:00N 35°38' E 139°45'0 0.0
2017-Apr-27 00:30N 35°38' E 139°45'0 0.0
2017-Apr-27 00:00N 35°38' E 139°45'2 3.5
2017-Apr-26 23:30N 35°37' E 139°47'1 1.7
2017-Apr-26 23:00N 35°36' E 139°47'1 2.8
2017-Apr-26 22:29N 35°35' E 139°48'4 8.3
2017-Apr-26 22:00N 35°38' E 139°45'0 0.0
2017-Apr-26 21:30N 35°38' E 139°45'0 0.0
2017-Apr-26 21:00N 35°38' E 139°45'0 0.0
2017-Apr-26 20:30N 35°38' E 139°45'0 0.0
2017-Apr-26 20:00N 35°38' E 139°45'0 0.0
2017-Apr-26 19:30N 35°38' E 139°45'0 0.0
2017-Apr-26 19:00N 35°38' E 139°45'0 0.0
2017-Apr-26 18:30N 35°38' E 139°45'0 0.0
2017-Apr-26 18:00N 35°38' E 139°45'0 0.0
2017-Apr-26 17:30N 35°38' E 139°45'0 0.0
2017-Apr-26 17:00N 35°38' E 139°45'0 0.0
2017-Apr-26 16:30N 35°38' E 139°45'0 0.0
2017-Apr-26 16:00N 35°38' E 139°45'0 0.0
2017-Apr-26 15:29N 35°38' E 139°45'0 0.0
2017-Apr-26 14:58N 35°38' E 139°45'0 0.0
2017-Apr-26 14:30N 35°38' E 139°45'0 0.0
2017-Apr-26 13:30N 35°38' E 139°45'0 0.0
2017-Apr-26 13:00N 35°38' E 139°45'0 0.0
2017-Apr-26 12:26N 35°38' E 139°45'0 0.0
2017-Apr-26 12:00N 35°38' E 139°45'0 0.0
2017-Apr-26 11:21N 35°38' E 139°45'0 0.0
2017-Apr-26 10:58N 35°38' E 139°45'0 0.0
2017-Apr-26 10:29N 35°38' E 139°45'0 0.0
2017-Apr-26 09:56N 35°38' E 139°45'0 0.0
2017-Apr-26 09:25N 35°38' E 139°45'0 0.0
2017-Apr-26 07:50N 35°38' E 139°45'0 0.0
2017-Apr-26 07:30N 35°38' E 139°45'0 0.0
2017-Apr-26 06:55N 35°38' E 139°45'0 0.0
2017-Apr-26 06:21N 35°38' E 139°45'0 0.0
2017-Apr-26 06:00N 35°38' E 139°45'0 0.0
2017-Apr-26 05:30N 35°38' E 139°45'0 0.0
2017-Apr-26 04:58N 35°38' E 139°45'0 0.0
2017-Apr-26 04:30N 35°38' E 139°45'0 0.0
2017-Apr-26 04:00N 35°38' E 139°45'0 0.0
2017-Apr-26 03:30N 35°38' E 139°45'0 0.0
2017-Apr-26 02:59N 35°38' E 139°45'0 0.0
2017-Apr-26 02:29N 35°38' E 139°45'0 0.0
2017-Apr-26 02:00N 35°38' E 139°45'0 0.0
2017-Apr-26 01:30N 35°38' E 139°45'0 0.0
2017-Apr-26 01:00N 35°38' E 139°45'0 0.0
2017-Apr-26 00:30N 35°38' E 139°45'0 0.0
2017-Apr-26 00:00N 35°38' E 139°45'0 0.0
2017-Apr-25 23:30N 35°38' E 139°45'0 0.0
2017-Apr-25 23:00N 35°38' E 139°45'0 0.0
2017-Apr-25 22:30N 35°38' E 139°45'0 0.0
2017-Apr-25 21:57N 35°38' E 139°45'0 0.0
2017-Apr-25 21:30N 35°38' E 139°45'0 0.0
2017-Apr-25 20:58N 35°38' E 139°45'0 0.0
2017-Apr-25 20:30N 35°38' E 139°45'0 0.0
2017-Apr-25 19:54N 35°38' E 139°45'0 0.0
2017-Apr-25 19:30N 35°38' E 139°45'0 0.0
2017-Apr-25 18:59N 35°38' E 139°45'0 0.0
2017-Apr-25 18:29N 35°38' E 139°45'0 0.0
2017-Apr-25 17:52N 35°38' E 139°45'0 0.0
2017-Apr-25 17:23N 35°38' E 139°45'0 0.0
2017-Apr-25 17:00N 35°38' E 139°45'0 0.0
2017-Apr-25 16:29N 35°38' E 139°45'0 0.0
2017-Apr-25 15:52N 35°38' E 139°45'0 0.0
2017-Apr-25 15:30N 35°38' E 139°45'0 0.0
2017-Apr-25 14:55N 35°38' E 139°45'0 0.0
2017-Apr-25 14:29N 35°38' E 139°45'0 0.0
2017-Apr-25 13:30N 35°38' E 139°45'0 0.0
2017-Apr-25 13:00N 35°38' E 139°45'0 0.0
2017-Apr-25 12:30N 35°38' E 139°45'0 0.0
2017-Apr-25 12:00N 35°38' E 139°45'0 0.0
2017-Apr-25 11:30N 35°38' E 139°45'0 0.0
2017-Apr-25 11:00N 35°38' E 139°45'0 0.0
2017-Apr-25 10:30N 35°38' E 139°45'0 0.0
2017-Apr-25 10:00N 35°38' E 139°45'0 0.0
2017-Apr-25 09:30N 35°38' E 139°45'0 0.0
2017-Apr-25 09:00N 35°38' E 139°45'0 0.0
2017-Apr-25 08:30N 35°38' E 139°45'0 0.0
2017-Apr-25 08:00N 35°38' E 139°45'0 0.0
2017-Apr-25 07:30N 35°38' E 139°45'0 0.0
2017-Apr-25 07:00N 35°38' E 139°45'0 0.0
2017-Apr-25 06:30N 35°38' E 139°45'0 0.0
2017-Apr-25 06:00N 35°38' E 139°45'0 0.0
2017-Apr-25 05:30N 35°38' E 139°45'0 0.0
2017-Apr-25 05:00N 35°38' E 139°45'0 0.0
2017-Apr-25 04:30N 35°38' E 139°45'0 0.0
2017-Apr-25 04:00N 35°38' E 139°45'0 0.0
2017-Apr-25 03:30N 35°38' E 139°45'0 0.2
2017-Apr-25 03:00N 35°38' E 139°46'0 0.2
2017-Apr-25 02:30N 35°38' E 139°45'0 0.0
2017-Apr-25 02:00N 35°38' E 139°45'0 0.0
2017-Apr-25 01:30N 35°38' E 139°45'0 0.0
2017-Apr-25 00:59N 35°38' E 139°45'0 0.0
2017-Apr-25 00:30N 35°38' E 139°45'0 0.0
2017-Apr-25 00:00N 35°38' E 139°45'0 0.0
2017-Apr-24 23:30N 35°38' E 139°45'0 0.0
2017-Apr-24 23:00N 35°38' E 139°45'0 0.0
2017-Apr-24 22:30N 35°38' E 139°45'0 0.0
2017-Apr-24 22:00N 35°38' E 139°45'0 0.0
2017-Apr-24 21:30N 35°38' E 139°45'0 0.0
2017-Apr-24 21:00N 35°38' E 139°45'0 0.0
2017-Apr-24 20:30N 35°38' E 139°45'0 0.0
2017-Apr-24 20:00N 35°38' E 139°45'0 0.0
2017-Apr-24 19:30N 35°38' E 139°45'0 0.0
2017-Apr-24 19:00N 35°38' E 139°45'0 0.3
2017-Apr-24 18:30N 35°38' E 139°46'2 4.2
2017-Apr-24 17:59N 35°36' E 139°47'1 2.7
2017-Apr-24 17:30N 35°37' E 139°46'1 2.1
2017-Apr-24 17:00N 35°38' E 139°46'0 0.3
2017-Apr-24 16:30N 35°38' E 139°45'0 0.0
2017-Apr-24 16:00N 35°38' E 139°45'0 0.0
2017-Apr-24 15:30N 35°38' E 139°45'0 0.0
2017-Apr-24 15:00N 35°38' E 139°45'0 0.0
2017-Apr-24 14:29N 35°38' E 139°45'2 2.0
2017-Apr-24 13:30N 35°36' E 139°46'1 1.1
2017-Apr-24 13:00N 35°37' E 139°46'1 2.7
2017-Apr-24 12:30N 35°38' E 139°45'2 4.1
2017-Apr-24 12:00N 35°37' E 139°47'0 0.4
2017-Apr-24 11:30N 35°36' E 139°47'2 4.4
2017-Apr-24 10:58N 35°35' E 139°49'2 4.9
2017-Apr-24 10:30N 35°36' E 139°47'2 4.7
2017-Apr-24 10:00N 35°38' E 139°45'2 3.6
2017-Apr-24 09:30N 35°37' E 139°47'2 3.5
2017-Apr-24 09:00N 35°35' E 139°48'1 2.7
2017-Apr-24 08:29N 35°36' E 139°46'2 4.7
2017-Apr-24 07:59N 35°38' E 139°45'0 0.0
2017-Apr-24 07:30N 35°38' E 139°45'0 0.0
2017-Apr-24 07:00N 35°38' E 139°45'0 0.0
2017-Apr-24 06:30N 35°38' E 139°45'0 0.0
2017-Apr-24 06:00N 35°38' E 139°45'0 0.0
2017-Apr-24 05:30N 35°38' E 139°45'0 0.0
2017-Apr-24 05:00N 35°38' E 139°45'0 0.0
2017-Apr-24 04:30N 35°38' E 139°45'0 0.0
2017-Apr-24 04:00N 35°38' E 139°45'0 0.0
2017-Apr-24 03:30N 35°38' E 139°45'0 0.0
2017-Apr-24 03:00N 35°38' E 139°45'0 0.0
2017-Apr-24 02:30N 35°38' E 139°45'0 0.0
2017-Apr-24 02:00N 35°38' E 139°45'0 0.0
2017-Apr-24 01:30N 35°38' E 139°45'0 0.0
2017-Apr-24 01:00N 35°38' E 139°45'0 0.0
2017-Apr-24 00:29N 35°38' E 139°45'0 0.0
2017-Apr-24 00:00N 35°38' E 139°45'0 0.0
2017-Apr-23 23:30N 35°38' E 139°45'0 0.0
2017-Apr-23 23:00N 35°38' E 139°45'0 0.0
2017-Apr-23 22:30N 35°38' E 139°45'0 0.0
2017-Apr-23 22:00N 35°38' E 139°45'0 0.0
2017-Apr-23 21:30N 35°38' E 139°45'0 0.0
2017-Apr-23 21:00N 35°38' E 139°45'0 0.0
2017-Apr-23 20:30N 35°38' E 139°45'0 0.0
2017-Apr-23 20:00N 35°38' E 139°45'0 0.0
2017-Apr-23 19:30N 35°38' E 139°45'0 0.0
2017-Apr-23 19:00N 35°38' E 139°45'0 0.0
2017-Apr-23 18:30N 35°38' E 139°45'0 0.0
2017-Apr-23 18:00N 35°38' E 139°45'0 0.0
2017-Apr-23 17:30N 35°38' E 139°45'0 0.0
2017-Apr-23 17:00N 35°38' E 139°45'0 0.0
2017-Apr-23 16:30N 35°38' E 139°45'0 0.0
2017-Apr-23 16:00N 35°38' E 139°45'0 0.0
2017-Apr-23 15:30N 35°38' E 139°45'0 0.0
2017-Apr-23 15:00N 35°38' E 139°45'0 0.0
2017-Apr-23 14:00N 35°38' E 139°45'0 0.0
2017-Apr-23 13:30N 35°38' E 139°45'0 0.0
2017-Apr-23 13:00N 35°38' E 139°45'0 0.0
2017-Apr-23 12:30N 35°38' E 139°45'0 0.0
2017-Apr-23 12:00N 35°38' E 139°45'0 0.0
2017-Apr-23 11:30N 35°38' E 139°45'0 0.0
2017-Apr-23 11:00N 35°38' E 139°45'2 3.4
2017-Apr-23 10:30N 35°37' E 139°46'1 1.7
2017-Apr-23 10:00N 35°36' E 139°47'3 5.2
2017-Apr-23 09:31N 35°34' E 139°49'3 6.6
2017-Apr-23 09:00N 35°36' E 139°46'2 3.6
2017-Apr-23 08:30N 35°38' E 139°45'0 0.0
2017-Apr-23 08:00N 35°38' E 139°45'0 0.0
2017-Apr-23 07:30N 35°38' E 139°45'0 0.0
2017-Apr-23 07:00N 35°38' E 139°45'0 0.0
2017-Apr-23 06:30N 35°38' E 139°45'0 0.0
2017-Apr-23 06:00N 35°38' E 139°45'0 0.0
2017-Apr-23 05:30N 35°38' E 139°45'0 0.0
2017-Apr-23 05:00N 35°38' E 139°45'0 0.0
2017-Apr-23 04:30N 35°38' E 139°45'0 0.0
2017-Apr-23 04:00N 35°38' E 139°45'0 0.0
2017-Apr-23 03:30N 35°38' E 139°45'0 0.0
2017-Apr-23 03:00N 35°38' E 139°45'0 0.0
2017-Apr-23 02:30N 35°38' E 139°45'0 0.0
2017-Apr-23 02:00N 35°38' E 139°45'0 0.0
2017-Apr-23 01:30N 35°38' E 139°45'0 0.0
2017-Apr-23 01:00N 35°38' E 139°45'0 0.0
2017-Apr-23 00:30N 35°38' E 139°45'0 0.0
2017-Apr-23 00:00N 35°38' E 139°45'0 0.0
2017-Apr-22 23:30N 35°38' E 139°45'0 0.0
2017-Apr-22 23:00N 35°38' E 139°45'0 0.0
2017-Apr-22 22:30N 35°38' E 139°45'0 0.0
2017-Apr-22 22:00N 35°38' E 139°45'0 0.0
2017-Apr-22 21:30N 35°38' E 139°45'0 0.0
2017-Apr-22 21:00N 35°38' E 139°45'0 0.0
2017-Apr-22 20:30N 35°38' E 139°45'0 0.0
2017-Apr-22 20:00N 35°38' E 139°45'0 0.0
2017-Apr-22 19:30N 35°38' E 139°45'0 0.0
2017-Apr-22 19:00N 35°38' E 139°45'0 0.0
2017-Apr-22 18:30N 35°38' E 139°45'0 0.0
2017-Apr-22 18:00N 35°38' E 139°45'0 0.0
2017-Apr-22 17:30N 35°38' E 139°45'0 0.0
2017-Apr-22 17:00N 35°38' E 139°45'0 0.0
2017-Apr-22 16:30N 35°38' E 139°45'0 0.0
2017-Apr-22 16:00N 35°38' E 139°45'0 0.0
2017-Apr-22 15:30N 35°38' E 139°45'0 0.0
2017-Apr-22 15:00N 35°38' E 139°45'0 0.0
2017-Apr-22 14:30N 35°38' E 139°45'0 0.0
2017-Apr-22 13:30N 35°38' E 139°45'0 0.0
2017-Apr-22 13:00N 35°38' E 139°45'0 0.0
2017-Apr-22 12:30N 35°38' E 139°45'0 0.0
2017-Apr-22 12:00N 35°38' E 139°45'0 0.0
2017-Apr-22 11:30N 35°38' E 139°45'0 0.0
2017-Apr-22 11:00N 35°38' E 139°45'1 1.3
2017-Apr-22 10:30N 35°38' E 139°46'1 2.4
2017-Apr-22 10:00N 35°37' E 139°47'3 5.6
2017-Apr-22 09:30N 35°34' E 139°49'1 1.6
2017-Apr-22 09:00N 35°34' E 139°48'1 2.6
2017-Apr-22 08:28N 35°36' E 139°47'1 2.0
2017-Apr-22 08:00N 35°36' E 139°46'2 3.9
2017-Apr-22 07:30N 35°38' E 139°45'0 0.0
2017-Apr-22 07:00N 35°38' E 139°45'0 0.0
2017-Apr-22 06:30N 35°38' E 139°45'0 0.0
2017-Apr-22 06:00N 35°38' E 139°45'0 0.0
2017-Apr-22 05:30N 35°38' E 139°45'0 0.0
2017-Apr-22 05:00N 35°38' E 139°45'0 0.0
2017-Apr-22 04:30N 35°38' E 139°45'0 0.0
2017-Apr-22 04:00N 35°38' E 139°45'0 0.0
2017-Apr-22 03:30N 35°38' E 139°45'0 0.0
2017-Apr-22 03:00N 35°38' E 139°45'0 0.0
2017-Apr-22 02:30N 35°38' E 139°45'0 0.0
2017-Apr-22 02:00N 35°38' E 139°45'0 0.0
2017-Apr-22 01:30N 35°38' E 139°45'0 0.0
2017-Apr-22 01:00N 35°38' E 139°45'0 0.0
2017-Apr-22 00:30N 35°38' E 139°45'0 0.0
2017-Apr-22 00:00N 35°38' E 139°45'2 3.8
2017-Apr-21 23:30N 35°36' E 139°46'1 1.9
2017-Apr-21 23:00N 35°35' E 139°47'1 2.7
2017-Apr-21 22:30N 35°35' E 139°48'1 2.2
2017-Apr-21 22:00N 35°34' E 139°49'2 4.9
2017-Apr-21 21:30N 35°36' E 139°47'3 5.4
2017-Apr-21 21:00N 35°38' E 139°46'0 0.0
2017-Apr-21 20:30N 35°38' E 139°46'0 0.0
2017-Apr-21 20:00N 35°38' E 139°46'0 0.0
2017-Apr-21 19:30N 35°38' E 139°46'0 0.0
2017-Apr-21 18:58N 35°38' E 139°46'0 0.0
2017-Apr-21 18:30N 35°38' E 139°46'0 0.0
2017-Apr-21 18:00N 35°38' E 139°46'0 0.0
2017-Apr-21 17:30N 35°38' E 139°46'0 0.0
2017-Apr-21 17:00N 35°38' E 139°46'0 0.0
2017-Apr-21 16:30N 35°38' E 139°46'0 0.0
2017-Apr-21 16:00N 35°38' E 139°46'0 0.0
2017-Apr-21 15:30N 35°38' E 139°46'0 0.0
2017-Apr-21 14:58N 35°38' E 139°46'0 0.0
2017-Apr-21 14:24N 35°38' E 139°46'0 0.0
2017-Apr-21 13:30N 35°38' E 139°46'0 0.0
2017-Apr-21 12:55N 35°38' E 139°46'0 0.0
2017-Apr-21 12:30N 35°38' E 139°46'0 0.0
2017-Apr-21 12:00N 35°38' E 139°46'0 0.0
2017-Apr-21 11:27N 35°38' E 139°46'0 0.0
2017-Apr-21 10:55N 35°38' E 139°46'0 0.0
2017-Apr-21 10:30N 35°38' E 139°46'0 0.0
2017-Apr-21 09:59N 35°38' E 139°46'0 0.0
2017-Apr-21 09:24N 35°38' E 139°46'0 0.0
2017-Apr-21 08:23N 35°38' E 139°46'0 0.0
2017-Apr-21 07:45N 35°38' E 139°46'0 0.0
2017-Apr-21 07:30N 35°38' E 139°46'2 3.2
2017-Apr-21 07:00N 35°37' E 139°46'1 2.6
2017-Apr-21 06:31N 35°36' E 139°47'2 3.3
2017-Apr-21 05:54N 35°34' E 139°48'1 1.9
2017-Apr-21 05:30N 35°35' E 139°48'2 4.7
2017-Apr-21 05:00N 35°37' E 139°46'2 3.3
2017-Apr-21 04:30N 35°38' E 139°45'0 0.0
2017-Apr-21 04:00N 35°38' E 139°45'0 0.0
2017-Apr-21 03:30N 35°38' E 139°45'0 0.0
2017-Apr-21 03:00N 35°38' E 139°45'0 0.0
2017-Apr-21 02:30N 35°38' E 139°45'0 0.0
2017-Apr-21 02:00N 35°38' E 139°45'0 0.0
2017-Apr-21 01:30N 35°38' E 139°45'0 0.0
2017-Apr-21 01:00N 35°38' E 139°45'0 0.0
2017-Apr-21 00:30N 35°38' E 139°45'0 0.0
2017-Apr-21 00:00N 35°38' E 139°45'0 0.0
2017-Apr-20 23:30N 35°38' E 139°45'0 0.0
2017-Apr-20 23:00N 35°38' E 139°45'0 0.0
2017-Apr-20 22:30N 35°38' E 139°45'0 0.0
2017-Apr-20 22:00N 35°38' E 139°45'0 0.0
2017-Apr-20 21:30N 35°38' E 139°45'0 0.0
2017-Apr-20 21:00N 35°38' E 139°45'0 0.0
2017-Apr-20 20:31N 35°38' E 139°45'  
Track history (hours):
 
Tides and Currents Weather Stations Pressure Air Temp Water Temp Dewpoint Dewpoint Depression Visibility Wind Speed Wind Dir Waves Ship Positions

Ohyamamaru

Last reported at 2017-Apr-30 20:30 UTC. Time now 2017-Apr-30 20:51 UTC.
Position N 35°38' E 139°45'.

Length 36 m; draft 4.4 m.

Type: Tug. MMSI: 431001114.

Date/timePositionNaut miles runAvg speedWind from/ knotsBaromVisibWave heightAir tempDewpointWater temp
2017-Apr-30 20:30N 35°38' E 139°45'0 0.0
2017-Apr-30 20:01N 35°38' E 139°45'0 0.0
2017-Apr-30 19:30N 35°38' E 139°45'0 0.0
2017-Apr-30 19:00N 35°38' E 139°45'0 0.0
2017-Apr-30 18:30N 35°38' E 139°45'0 0.0
2017-Apr-30 18:00N 35°38' E 139°45'0 0.0
2017-Apr-30 17:30N 35°38' E 139°45'0 0.0
2017-Apr-30 17:00N 35°38' E 139°45'0 0.0
2017-Apr-30 16:31N 35°38' E 139°45'0 0.0
2017-Apr-30 16:00N 35°38' E 139°45'0 0.0
2017-Apr-30 15:31N 35°38' E 139°45'0 0.0
2017-Apr-30 15:01N 35°38' E 139°45'0 0.0
2017-Apr-30 14:31N 35°38' E 139°45'0 0.0
2017-Apr-30 13:31N 35°38' E 139°45'0 0.0
2017-Apr-30 13:01N 35°38' E 139°45'0 0.0
2017-Apr-30 12:30N 35°38' E 139°45'0 0.0
2017-Apr-30 12:00N 35°38' E 139°45'0 0.0
2017-Apr-30 11:30N 35°38' E 139°45'0 0.0
2017-Apr-30 11:01N 35°38' E 139°45'0 0.0
2017-Apr-30 10:30N 35°38' E 139°45'0 0.0
2017-Apr-30 10:01N 35°38' E 139°45'2 4.6
2017-Apr-30 09:30N 35°36' E 139°46'0 0.4
2017-Apr-30 09:00N 35°36' E 139°47'2 4.3
2017-Apr-30 08:30N 35°34' E 139°48'3 5.2
2017-Apr-30 08:00N 35°36' E 139°46'2 4.0
2017-Apr-30 07:30N 35°38' E 139°45'0 0.0
2017-Apr-30 07:00N 35°38' E 139°45'0 0.0
2017-Apr-30 06:30N 35°38' E 139°45'0 0.0
2017-Apr-30 06:00N 35°38' E 139°45'0 0.0
2017-Apr-30 05:31N 35°38' E 139°45'0 0.0
2017-Apr-30 05:00N 35°38' E 139°45'0 0.0
2017-Apr-30 04:30N 35°38' E 139°45'0 0.0
2017-Apr-30 04:00N 35°38' E 139°45'0 0.0
2017-Apr-30 03:30N 35°38' E 139°45'0 0.0
2017-Apr-30 03:01N 35°38' E 139°45'0 0.0
2017-Apr-30 02:30N 35°38' E 139°45'0 0.0
2017-Apr-30 02:01N 35°38' E 139°45'0 0.0
2017-Apr-30 01:30N 35°38' E 139°45'0 0.0
2017-Apr-30 01:01N 35°38' E 139°45'0 0.0
2017-Apr-30 00:31N 35°38' E 139°45'0 0.0
2017-Apr-30 00:00N 35°38' E 139°45'0 0.0
2017-Apr-29 23:30N 35°38' E 139°45'0 0.0
2017-Apr-29 23:00N 35°38' E 139°45'0 0.0
2017-Apr-29 22:30N 35°38' E 139°45'0 0.0
2017-Apr-29 22:01N 35°38' E 139°45'0 0.0
2017-Apr-29 21:29N 35°38' E 139°45'0 0.0
2017-Apr-29 21:00N 35°38' E 139°45'0 0.0
2017-Apr-29 20:30N 35°38' E 139°45'0 0.0
2017-Apr-29 20:01N 35°38' E 139°45'0 0.0
2017-Apr-29 19:30N 35°38' E 139°45'0 0.0
2017-Apr-29 19:01N 35°38' E 139°45'0 0.0
2017-Apr-29 18:31N 35°38' E 139°45'0 0.0
2017-Apr-29 18:00N 35°38' E 139°45'0 0.0
2017-Apr-29 17:30N 35°38' E 139°45'0 0.0
2017-Apr-29 17:00N 35°38' E 139°45'0 0.0
2017-Apr-29 16:31N 35°38' E 139°45'0 0.0
2017-Apr-29 16:00N 35°38' E 139°45'0 0.0
2017-Apr-29 15:31N 35°38' E 139°45'0 0.0
2017-Apr-29 15:00N 35°38' E 139°45'0 0.0
2017-Apr-29 14:00N 35°38' E 139°45'0 0.0
2017-Apr-29 13:30N 35°38' E 139°45'0 0.0
2017-Apr-29 13:00N 35°38' E 139°45'0 0.0
2017-Apr-29 12:30N 35°38' E 139°45'0 0.0
2017-Apr-29 12:00N 35°38' E 139°45'0 0.0
2017-Apr-29 11:31N 35°38' E 139°45'1 1.5
2017-Apr-29 11:00N 35°37' E 139°46'1 2.9
2017-Apr-29 10:30N 35°36' E 139°47'1 2.4
2017-Apr-29 10:00N 35°37' E 139°46'1 2.1
2017-Apr-29 09:31N 35°36' E 139°46'0 0.2
2017-Apr-29 09:00N 35°36' E 139°46'3 5.7
2017-Apr-29 08:30N 35°34' E 139°49'2 4.6
2017-Apr-29 08:00N 35°35' E 139°47'1 1.3
2017-Apr-29 07:31N 35°36' E 139°47'1 1.8
2017-Apr-29 07:00N 35°37' E 139°46'1 2.8
2017-Apr-29 06:30N 35°38' E 139°45'0 0.8
2017-Apr-29 06:00N 35°38' E 139°46'2 3.9
2017-Apr-29 05:23N 35°36' E 139°47'2 4.7
2017-Apr-29 05:00N 35°37' E 139°46'1 2.0
2017-Apr-29 04:30N 35°38' E 139°45'0 0.0
2017-Apr-29 04:00N 35°38' E 139°45'0 0.0
2017-Apr-29 03:30N 35°38' E 139°45'0 0.0
2017-Apr-29 03:00N 35°38' E 139°45'0 0.0
2017-Apr-29 02:30N 35°38' E 139°45'0 0.0
2017-Apr-29 02:00N 35°38' E 139°45'0 0.0
2017-Apr-29 01:30N 35°38' E 139°45'0 0.0
2017-Apr-29 00:47N 35°38' E 139°45'0 0.0
2017-Apr-29 00:29N 35°38' E 139°45'0 0.0
2017-Apr-29 00:00N 35°38' E 139°45'2 3.5
2017-Apr-28 23:30N 35°37' E 139°46'1 1.6
2017-Apr-28 23:00N 35°36' E 139°47'2 4.0
2017-Apr-28 22:30N 35°34' E 139°48'2 3.6
2017-Apr-28 22:00N 35°36' E 139°47'3 6.1
2017-Apr-28 21:30N 35°38' E 139°46'0 0.5
2017-Apr-28 21:00N 35°38' E 139°45'0 0.0
2017-Apr-28 20:30N 35°38' E 139°45'0 0.0
2017-Apr-28 20:00N 35°38' E 139°45'0 0.0
2017-Apr-28 19:30N 35°38' E 139°45'0 0.0
2017-Apr-28 19:00N 35°38' E 139°45'0 0.0
2017-Apr-28 18:30N 35°38' E 139°45'0 0.0
2017-Apr-28 18:00N 35°38' E 139°45'0 0.0
2017-Apr-28 17:30N 35°38' E 139°45'0 0.0
2017-Apr-28 17:00N 35°38' E 139°45'0 0.0
2017-Apr-28 16:30N 35°38' E 139°45'0 0.0
2017-Apr-28 16:00N 35°38' E 139°45'0 0.0
2017-Apr-28 15:30N 35°38' E 139°45'0 0.0
2017-Apr-28 15:00N 35°38' E 139°45'0 0.0
2017-Apr-28 14:00N 35°38' E 139°45'0 0.0
2017-Apr-28 13:30N 35°38' E 139°45'0 0.0
2017-Apr-28 13:00N 35°38' E 139°45'0 0.0
2017-Apr-28 12:30N 35°38' E 139°45'0 0.0
2017-Apr-28 12:00N 35°38' E 139°45'0 0.0
2017-Apr-28 11:30N 35°38' E 139°45'0 0.0
2017-Apr-28 11:00N 35°38' E 139°45'0 0.0
2017-Apr-28 10:30N 35°38' E 139°45'0 0.0
2017-Apr-28 10:00N 35°38' E 139°45'0 0.0
2017-Apr-28 09:30N 35°38' E 139°45'0 0.0
2017-Apr-28 09:00N 35°38' E 139°45'2 4.5
2017-Apr-28 08:30N 35°36' E 139°47'0 0.4
2017-Apr-28 08:00N 35°36' E 139°47'2 4.4
2017-Apr-28 07:30N 35°38' E 139°45'0 0.0
2017-Apr-28 07:00N 35°38' E 139°45'0 0.0
2017-Apr-28 06:30N 35°38' E 139°45'0 0.0
2017-Apr-28 06:00N 35°38' E 139°45'0 0.0
2017-Apr-28 05:30N 35°38' E 139°45'0 0.0
2017-Apr-28 05:00N 35°38' E 139°45'0 0.0
2017-Apr-28 04:30N 35°38' E 139°45'0 0.0
2017-Apr-28 04:00N 35°38' E 139°45'0 0.0
2017-Apr-28 03:30N 35°38' E 139°45'0 0.0
2017-Apr-28 03:00N 35°38' E 139°45'0 0.0
2017-Apr-28 02:30N 35°38' E 139°45'0 0.0
2017-Apr-28 02:00N 35°38' E 139°45'0 0.0
2017-Apr-28 01:30N 35°38' E 139°45'0 0.0
2017-Apr-28 01:00N 35°38' E 139°45'0 0.0
2017-Apr-28 00:30N 35°38' E 139°45'0 0.0
2017-Apr-27 23:59N 35°38' E 139°45'0 0.0
2017-Apr-27 23:30N 35°38' E 139°45'0 0.0
2017-Apr-27 23:00N 35°38' E 139°45'0 0.0
2017-Apr-27 22:30N 35°38' E 139°45'0 0.0
2017-Apr-27 22:00N 35°38' E 139°45'0 0.0
2017-Apr-27 21:30N 35°38' E 139°45'0 0.0
2017-Apr-27 21:00N 35°38' E 139°45'0 0.0
2017-Apr-27 20:30N 35°38' E 139°45'0 0.0
2017-Apr-27 20:00N 35°38' E 139°45'0 0.0
2017-Apr-27 19:30N 35°38' E 139°45'0 0.0
2017-Apr-27 19:00N 35°38' E 139°45'0 0.0
2017-Apr-27 18:30N 35°38' E 139°45'0 0.0
2017-Apr-27 18:00N 35°38' E 139°45'0 0.0
2017-Apr-27 17:30N 35°38' E 139°45'0 0.0
2017-Apr-27 17:00N 35°38' E 139°45'0 0.0
2017-Apr-27 16:30N 35°38' E 139°45'0 0.0
2017-Apr-27 16:00N 35°38' E 139°45'0 0.0
2017-Apr-27 15:30N 35°38' E 139°45'0 0.0
2017-Apr-27 15:00N 35°38' E 139°45'0 0.0
2017-Apr-27 14:00N 35°38' E 139°45'0 0.0
2017-Apr-27 13:30N 35°38' E 139°45'0 0.0
2017-Apr-27 13:00N 35°38' E 139°45'2 4.4
2017-Apr-27 12:30N 35°36' E 139°47'0 0.8
2017-Apr-27 12:00N 35°36' E 139°47'2 4.8
2017-Apr-27 11:30N 35°34' E 139°49'2 4.6
2017-Apr-27 11:00N 35°35' E 139°47'0 0.1
2017-Apr-27 10:30N 35°35' E 139°47'1 2.5
2017-Apr-27 10:00N 35°37' E 139°47'1 1.4
2017-Apr-27 09:19N 35°36' E 139°46'0 0.0
2017-Apr-27 07:34N 35°36' E 139°46'1 8.6
2017-Apr-27 07:30N 35°35' E 139°47'1 2.2
2017-Apr-27 07:00N 35°36' E 139°47'2 3.6
2017-Apr-27 06:30N 35°38' E 139°46'0 0.5
2017-Apr-27 06:00N 35°38' E 139°45'0 0.0
2017-Apr-27 05:30N 35°38' E 139°45'0 0.0
2017-Apr-27 05:00N 35°38' E 139°45'0 0.0
2017-Apr-27 04:30N 35°38' E 139°45'0 0.0
2017-Apr-27 04:00N 35°38' E 139°45'0 0.0
2017-Apr-27 03:30N 35°38' E 139°45'0 0.0
2017-Apr-27 02:59N 35°38' E 139°45'0 0.0
2017-Apr-27 02:28N 35°38' E 139°45'0 0.0
2017-Apr-27 02:00N 35°38' E 139°45'0 0.0
2017-Apr-27 01:30N 35°38' E 139°45'0 0.0
2017-Apr-27 01:00N 35°38' E 139°45'0 0.0
2017-Apr-27 00:30N 35°38' E 139°45'0 0.0
2017-Apr-27 00:00N 35°38' E 139°45'2 3.5
2017-Apr-26 23:30N 35°37' E 139°47'1 1.7
2017-Apr-26 23:00N 35°36' E 139°47'1 2.8
2017-Apr-26 22:29N 35°35' E 139°48'4 8.3
2017-Apr-26 22:00N 35°38' E 139°45'0 0.0
2017-Apr-26 21:30N 35°38' E 139°45'0 0.0
2017-Apr-26 21:00N 35°38' E 139°45'0 0.0
2017-Apr-26 20:30N 35°38' E 139°45'0 0.0
2017-Apr-26 20:00N 35°38' E 139°45'0 0.0
2017-Apr-26 19:30N 35°38' E 139°45'0 0.0
2017-Apr-26 19:00N 35°38' E 139°45'0 0.0
2017-Apr-26 18:30N 35°38' E 139°45'0 0.0
2017-Apr-26 18:00N 35°38' E 139°45'0 0.0
2017-Apr-26 17:30N 35°38' E 139°45'0 0.0
2017-Apr-26 17:00N 35°38' E 139°45'0 0.0
2017-Apr-26 16:30N 35°38' E 139°45'0 0.0
2017-Apr-26 16:00N 35°38' E 139°45'0 0.0
2017-Apr-26 15:29N 35°38' E 139°45'0 0.0
2017-Apr-26 14:58N 35°38' E 139°45'0 0.0
2017-Apr-26 14:30N 35°38' E 139°45'0 0.0
2017-Apr-26 13:30N 35°38' E 139°45'0 0.0
2017-Apr-26 13:00N 35°38' E 139°45'0 0.0
2017-Apr-26 12:26N 35°38' E 139°45'0 0.0
2017-Apr-26 12:00N 35°38' E 139°45'0 0.0
2017-Apr-26 11:21N 35°38' E 139°45'0 0.0
2017-Apr-26 10:58N 35°38' E 139°45'0 0.0
2017-Apr-26 10:29N 35°38' E 139°45'0 0.0
2017-Apr-26 09:56N 35°38' E 139°45'0 0.0
2017-Apr-26 09:25N 35°38' E 139°45'0 0.0
2017-Apr-26 07:50N 35°38' E 139°45'0 0.0
2017-Apr-26 07:30N 35°38' E 139°45'0 0.0
2017-Apr-26 06:55N 35°38' E 139°45'0 0.0
2017-Apr-26 06:21N 35°38' E 139°45'0 0.0
2017-Apr-26 06:00N 35°38' E 139°45'0 0.0
2017-Apr-26 05:30N 35°38' E 139°45'0 0.0
2017-Apr-26 04:58N 35°38' E 139°45'0 0.0
2017-Apr-26 04:30N 35°38' E 139°45'0 0.0
2017-Apr-26 04:00N 35°38' E 139°45'0 0.0
2017-Apr-26 03:30N 35°38' E 139°45'0 0.0
2017-Apr-26 02:59N 35°38' E 139°45'0 0.0
2017-Apr-26 02:29N 35°38' E 139°45'0 0.0
2017-Apr-26 02:00N 35°38' E 139°45'0 0.0
2017-Apr-26 01:30N 35°38' E 139°45'0 0.0
2017-Apr-26 01:00N 35°38' E 139°45'0 0.0
2017-Apr-26 00:30N 35°38' E 139°45'0 0.0
2017-Apr-26 00:00N 35°38' E 139°45'0 0.0
2017-Apr-25 23:30N 35°38' E 139°45'0 0.0
2017-Apr-25 23:00N 35°38' E 139°45'0 0.0
2017-Apr-25 22:30N 35°38' E 139°45'0 0.0
2017-Apr-25 21:57N 35°38' E 139°45'0 0.0
2017-Apr-25 21:30N 35°38' E 139°45'0 0.0
2017-Apr-25 20:58N 35°38' E 139°45'0 0.0
2017-Apr-25 20:30N 35°38' E 139°45'0 0.0
2017-Apr-25 19:54N 35°38' E 139°45'0 0.0
2017-Apr-25 19:30N 35°38' E 139°45'0 0.0
2017-Apr-25 18:59N 35°38' E 139°45'0 0.0
2017-Apr-25 18:29N 35°38' E 139°45'0 0.0
2017-Apr-25 17:52N 35°38' E 139°45'0 0.0
2017-Apr-25 17:23N 35°38' E 139°45'0 0.0
2017-Apr-25 17:00N 35°38' E 139°45'0 0.0
2017-Apr-25 16:29N 35°38' E 139°45'0 0.0
2017-Apr-25 15:52N 35°38' E 139°45'0 0.0
2017-Apr-25 15:30N 35°38' E 139°45'0 0.0
2017-Apr-25 14:55N 35°38' E 139°45'0 0.0
2017-Apr-25 14:29N 35°38' E 139°45'0 0.0
2017-Apr-25 13:30N 35°38' E 139°45'0 0.0
2017-Apr-25 13:00N 35°38' E 139°45'0 0.0
2017-Apr-25 12:30N 35°38' E 139°45'0 0.0
2017-Apr-25 12:00N 35°38' E 139°45'0 0.0
2017-Apr-25 11:30N 35°38' E 139°45'0 0.0
2017-Apr-25 11:00N 35°38' E 139°45'0 0.0
2017-Apr-25 10:30N 35°38' E 139°45'0 0.0
2017-Apr-25 10:00N 35°38' E 139°45'0 0.0
2017-Apr-25 09:30N 35°38' E 139°45'0 0.0
2017-Apr-25 09:00N 35°38' E 139°45'0 0.0
2017-Apr-25 08:30N 35°38' E 139°45'0 0.0
2017-Apr-25 08:00N 35°38' E 139°45'0 0.0
2017-Apr-25 07:30N 35°38' E 139°45'0 0.0
2017-Apr-25 07:00N 35°38' E 139°45'0 0.0
2017-Apr-25 06:30N 35°38' E 139°45'0 0.0
2017-Apr-25 06:00N 35°38' E 139°45'0 0.0
2017-Apr-25 05:30N 35°38' E 139°45'0 0.0
2017-Apr-25 05:00N 35°38' E 139°45'0 0.0
2017-Apr-25 04:30N 35°38' E 139°45'0 0.0
2017-Apr-25 04:00N 35°38' E 139°45'0 0.0
2017-Apr-25 03:30N 35°38' E 139°45'0 0.2
2017-Apr-25 03:00N 35°38' E 139°46'0 0.2
2017-Apr-25 02:30N 35°38' E 139°45'0 0.0
2017-Apr-25 02:00N 35°38' E 139°45'0 0.0
2017-Apr-25 01:30N 35°38' E 139°45'0 0.0
2017-Apr-25 00:59N 35°38' E 139°45'0 0.0
2017-Apr-25 00:30N 35°38' E 139°45'0 0.0
2017-Apr-25 00:00N 35°38' E 139°45'0 0.0
2017-Apr-24 23:30N 35°38' E 139°45'0 0.0
2017-Apr-24 23:00N 35°38' E 139°45'0 0.0
2017-Apr-24 22:30N 35°38' E 139°45'0 0.0
2017-Apr-24 22:00N 35°38' E 139°45'0 0.0
2017-Apr-24 21:30N 35°38' E 139°45'0 0.0
2017-Apr-24 21:00N 35°38' E 139°45'0 0.0
2017-Apr-24 20:30N 35°38' E 139°45'0 0.0
2017-Apr-24 20:00N 35°38' E 139°45'0 0.0
2017-Apr-24 19:30N 35°38' E 139°45'0 0.0
2017-Apr-24 19:00N 35°38' E 139°45'0 0.3
2017-Apr-24 18:30N 35°38' E 139°46'2 4.2
2017-Apr-24 17:59N 35°36' E 139°47'1 2.7
2017-Apr-24 17:30N 35°37' E 139°46'1 2.1
2017-Apr-24 17:00N 35°38' E 139°46'0 0.3
2017-Apr-24 16:30N 35°38' E 139°45'0 0.0
2017-Apr-24 16:00N 35°38' E 139°45'0 0.0
2017-Apr-24 15:30N 35°38' E 139°45'0 0.0
2017-Apr-24 15:00N 35°38' E 139°45'0 0.0
2017-Apr-24 14:29N 35°38' E 139°45'2 2.0
2017-Apr-24 13:30N 35°36' E 139°46'1 1.1
2017-Apr-24 13:00N 35°37' E 139°46'1 2.7
2017-Apr-24 12:30N 35°38' E 139°45'2 4.1
2017-Apr-24 12:00N 35°37' E 139°47'0 0.4
2017-Apr-24 11:30N 35°36' E 139°47'2 4.4
2017-Apr-24 10:58N 35°35' E 139°49'2 4.9
2017-Apr-24 10:30N 35°36' E 139°47'2 4.7
2017-Apr-24 10:00N 35°38' E 139°45'2 3.6
2017-Apr-24 09:30N 35°37' E 139°47'2 3.5
2017-Apr-24 09:00N 35°35' E 139°48'1 2.7
2017-Apr-24 08:29N 35°36' E 139°46'2 4.7
2017-Apr-24 07:59N 35°38' E 139°45'0 0.0
2017-Apr-24 07:30N 35°38' E 139°45'0 0.0
2017-Apr-24 07:00N 35°38' E 139°45'0 0.0
2017-Apr-24 06:30N 35°38' E 139°45'0 0.0
2017-Apr-24 06:00N 35°38' E 139°45'0 0.0
2017-Apr-24 05:30N 35°38' E 139°45'0 0.0
2017-Apr-24 05:00N 35°38' E 139°45'0 0.0
2017-Apr-24 04:30N 35°38' E 139°45'0 0.0
2017-Apr-24 04:00N 35°38' E 139°45'0 0.0
2017-Apr-24 03:30N 35°38' E 139°45'0 0.0
2017-Apr-24 03:00N 35°38' E 139°45'0 0.0
2017-Apr-24 02:30N 35°38' E 139°45'0 0.0
2017-Apr-24 02:00N 35°38' E 139°45'0 0.0
2017-Apr-24 01:30N 35°38' E 139°45'0 0.0
2017-Apr-24 01:00N 35°38' E 139°45'0 0.0
2017-Apr-24 00:29N 35°38' E 139°45'0 0.0
2017-Apr-24 00:00N 35°38' E 139°45'0 0.0
2017-Apr-23 23:30N 35°38' E 139°45'0 0.0
2017-Apr-23 23:00N 35°38' E 139°45'0 0.0
2017-Apr-23 22:30N 35°38' E 139°45'0 0.0
2017-Apr-23 22:00N 35°38' E 139°45'0 0.0
2017-Apr-23 21:30N 35°38' E 139°45'0 0.0
2017-Apr-23 21:00N 35°38' E 139°45'0 0.0
2017-Apr-23 20:30N 35°38' E 139°45'0 0.0
2017-Apr-23 20:00N 35°38' E 139°45'0 0.0
2017-Apr-23 19:30N 35°38' E 139°45'0 0.0
2017-Apr-23 19:00N 35°38' E 139°45'0 0.0
2017-Apr-23 18:30N 35°38' E 139°45'0 0.0
2017-Apr-23 18:00N 35°38' E 139°45'0 0.0
2017-Apr-23 17:30N 35°38' E 139°45'0 0.0
2017-Apr-23 17:00N 35°38' E 139°45'0 0.0
2017-Apr-23 16:30N 35°38' E 139°45'0 0.0
2017-Apr-23 16:00N 35°38' E 139°45'0 0.0
2017-Apr-23 15:30N 35°38' E 139°45'0 0.0
2017-Apr-23 15:00N 35°38' E 139°45'0 0.0
2017-Apr-23 14:00N 35°38' E 139°45'0 0.0
2017-Apr-23 13:30N 35°38' E 139°45'0 0.0
2017-Apr-23 13:00N 35°38' E 139°45'0 0.0
2017-Apr-23 12:30N 35°38' E 139°45'0 0.0
2017-Apr-23 12:00N 35°38' E 139°45'0 0.0
2017-Apr-23 11:30N 35°38' E 139°45'0 0.0
2017-Apr-23 11:00N 35°38' E 139°45'2 3.4
2017-Apr-23 10:30N 35°37' E 139°46'1 1.7
2017-Apr-23 10:00N 35°36' E 139°47'3 5.2
2017-Apr-23 09:31N 35°34' E 139°49'3 6.6
2017-Apr-23 09:00N 35°36' E 139°46'2 3.6
2017-Apr-23 08:30N 35°38' E 139°45'0 0.0
2017-Apr-23 08:00N 35°38' E 139°45'0 0.0
2017-Apr-23 07:30N 35°38' E 139°45'0 0.0
2017-Apr-23 07:00N 35°38' E 139°45'0 0.0
2017-Apr-23 06:30N 35°38' E 139°45'0 0.0
2017-Apr-23 06:00N 35°38' E 139°45'0 0.0
2017-Apr-23 05:30N 35°38' E 139°45'0 0.0
2017-Apr-23 05:00N 35°38' E 139°45'0 0.0
2017-Apr-23 04:30N 35°38' E 139°45'0 0.0
2017-Apr-23 04:00N 35°38' E 139°45'0 0.0
2017-Apr-23 03:30N 35°38' E 139°45'0 0.0
2017-Apr-23 03:00N 35°38' E 139°45'0 0.0
2017-Apr-23 02:30N 35°38' E 139°45'0 0.0
2017-Apr-23 02:00N 35°38' E 139°45'0 0.0
2017-Apr-23 01:30N 35°38' E 139°45'0 0.0
2017-Apr-23 01:00N 35°38' E 139°45'0 0.0
2017-Apr-23 00:30N 35°38' E 139°45'0 0.0
2017-Apr-23 00:00N 35°38' E 139°45'0 0.0
2017-Apr-22 23:30N 35°38' E 139°45'0 0.0
2017-Apr-22 23:00N 35°38' E 139°45'0 0.0
2017-Apr-22 22:30N 35°38' E 139°45'0 0.0
2017-Apr-22 22:00N 35°38' E 139°45'0 0.0
2017-Apr-22 21:30N 35°38' E 139°45'0 0.0
2017-Apr-22 21:00N 35°38' E 139°45'0 0.0
2017-Apr-22 20:30N 35°38' E 139°45'0 0.0
2017-Apr-22 20:00N 35°38' E 139°45'0 0.0
2017-Apr-22 19:30N 35°38' E 139°45'0 0.0
2017-Apr-22 19:00N 35°38' E 139°45'0 0.0
2017-Apr-22 18:30N 35°38' E 139°45'0 0.0
2017-Apr-22 18:00N 35°38' E 139°45'0 0.0
2017-Apr-22 17:30N 35°38' E 139°45'0 0.0
2017-Apr-22 17:00N 35°38' E 139°45'0 0.0
2017-Apr-22 16:30N 35°38' E 139°45'0 0.0
2017-Apr-22 16:00N 35°38' E 139°45'0 0.0
2017-Apr-22 15:30N 35°38' E 139°45'0 0.0
2017-Apr-22 15:00N 35°38' E 139°45'0 0.0
2017-Apr-22 14:30N 35°38' E 139°45'0 0.0
2017-Apr-22 13:30N 35°38' E 139°45'0 0.0
2017-Apr-22 13:00N 35°38' E 139°45'0 0.0
2017-Apr-22 12:30N 35°38' E 139°45'0 0.0
2017-Apr-22 12:00N 35°38' E 139°45'0 0.0
2017-Apr-22 11:30N 35°38' E 139°45'0 0.0
2017-Apr-22 11:00N 35°38' E 139°45'1 1.3
2017-Apr-22 10:30N 35°38' E 139°46'1 2.4
2017-Apr-22 10:00N 35°37' E 139°47'3 5.6
2017-Apr-22 09:30N 35°34' E 139°49'1 1.6
2017-Apr-22 09:00N 35°34' E 139°48'1 2.6
2017-Apr-22 08:28N 35°36' E 139°47'1 2.0
2017-Apr-22 08:00N 35°36' E 139°46'2 3.9
2017-Apr-22 07:30N 35°38' E 139°45'0 0.0
2017-Apr-22 07:00N 35°38' E 139°45'0 0.0
2017-Apr-22 06:30N 35°38' E 139°45'0 0.0
2017-Apr-22 06:00N 35°38' E 139°45'0 0.0
2017-Apr-22 05:30N 35°38' E 139°45'0 0.0
2017-Apr-22 05:00N 35°38' E 139°45'0 0.0
2017-Apr-22 04:30N 35°38' E 139°45'0 0.0
2017-Apr-22 04:00N 35°38' E 139°45'0 0.0
2017-Apr-22 03:30N 35°38' E 139°45'0 0.0
2017-Apr-22 03:00N 35°38' E 139°45'0 0.0
2017-Apr-22 02:30N 35°38' E 139°45'0 0.0
2017-Apr-22 02:00N 35°38' E 139°45'0 0.0
2017-Apr-22 01:30N 35°38' E 139°45'0 0.0
2017-Apr-22 01:00N 35°38' E 139°45'0 0.0
2017-Apr-22 00:30N 35°38' E 139°45'0 0.0
2017-Apr-22 00:00N 35°38' E 139°45'2 3.8
2017-Apr-21 23:30N 35°36' E 139°46'1 1.9
2017-Apr-21 23:00N 35°35' E 139°47'1 2.7
2017-Apr-21 22:30N 35°35' E 139°48'1 2.2
2017-Apr-21 22:00N 35°34' E 139°49'2 4.9
2017-Apr-21 21:30N 35°36' E 139°47'3 5.4
2017-Apr-21 21:00N 35°38' E 139°46'0 0.0
2017-Apr-21 20:30N 35°38' E 139°46'0 0.0
2017-Apr-21 20:00N 35°38' E 139°46'0 0.0
2017-Apr-21 19:30N 35°38' E 139°46'0 0.0
2017-Apr-21 18:58N 35°38' E 139°46'0 0.0
2017-Apr-21 18:30N 35°38' E 139°46'0 0.0
2017-Apr-21 18:00N 35°38' E 139°46'0 0.0
2017-Apr-21 17:30N 35°38' E 139°46'0 0.0
2017-Apr-21 17:00N 35°38' E 139°46'0 0.0
2017-Apr-21 16:30N 35°38' E 139°46'0 0.0
2017-Apr-21 16:00N 35°38' E 139°46'0 0.0
2017-Apr-21 15:30N 35°38' E 139°46'0 0.0
2017-Apr-21 14:58N 35°38' E 139°46'0 0.0
2017-Apr-21 14:24N 35°38' E 139°46'0 0.0
2017-Apr-21 13:30N 35°38' E 139°46'0 0.0
2017-Apr-21 12:55N 35°38' E 139°46'0 0.0
2017-Apr-21 12:30N 35°38' E 139°46'0 0.0
2017-Apr-21 12:00N 35°38' E 139°46'0 0.0
2017-Apr-21 11:27N 35°38' E 139°46'0 0.0
2017-Apr-21 10:55N 35°38' E 139°46'0 0.0
2017-Apr-21 10:30N 35°38' E 139°46'0 0.0
2017-Apr-21 09:59N 35°38' E 139°46'0 0.0
2017-Apr-21 09:24N 35°38' E 139°46'0 0.0
2017-Apr-21 08:23N 35°38' E 139°46'0 0.0
2017-Apr-21 07:45N 35°38' E 139°46'0 0.0
2017-Apr-21 07:30N 35°38' E 139°46'2 3.2
2017-Apr-21 07:00N 35°37' E 139°46'1 2.6
2017-Apr-21 06:31N 35°36' E 139°47'2 3.3
2017-Apr-21 05:54N 35°34' E 139°48'1 1.9
2017-Apr-21 05:30N 35°35' E 139°48'2 4.7
2017-Apr-21 05:00N 35°37' E 139°46'2 3.3
2017-Apr-21 04:30N 35°38' E 139°45'0 0.0
2017-Apr-21 04:00N 35°38' E 139°45'0 0.0
2017-Apr-21 03:30N 35°38' E 139°45'0 0.0
2017-Apr-21 03:00N 35°38' E 139°45'0 0.0
2017-Apr-21 02:30N 35°38' E 139°45'0 0.0
2017-Apr-21 02:00N 35°38' E 139°45'0 0.0
2017-Apr-21 01:30N 35°38' E 139°45'0 0.0
2017-Apr-21 01:00N 35°38' E 139°45'0 0.0
2017-Apr-21 00:30N 35°38' E 139°45'0 0.0
2017-Apr-21 00:00N 35°38' E 139°45'0 0.0
2017-Apr-20 23:30N 35°38' E 139°45'0 0.0
2017-Apr-20 23:00N 35°38' E 139°45'0 0.0
2017-Apr-20 22:30N 35°38' E 139°45'0 0.0
2017-Apr-20 22:00N 35°38' E 139°45'0 0.0
2017-Apr-20 21:30N 35°38' E 139°45'0 0.0
2017-Apr-20 21:00N 35°38' E 139°45'0 0.0
2017-Apr-20 20:31N 35°38' E 139°45'  

Dump ship's entire track history